sensor_id;sensor_type;location;lat;lon;timestamp;P1;durP1;ratioP1;P2;durP2;ratioP2
61743;SDS011;48718;54.994;73.352;2022-08-01T00:01:49;10.48;;;9.68;;
61743;SDS011;48718;54.994;73.352;2022-08-01T00:04:16;11.02;;;10.18;;
61743;SDS011;48718;54.994;73.352;2022-08-01T00:06:43;10.90;;;10.00;;
61743;SDS011;48718;54.994;73.352;2022-08-01T00:09:09;11.32;;;10.32;;
61743;SDS011;48718;54.994;73.352;2022-08-01T00:11:36;11.25;;;10.10;;
61743;SDS011;48718;54.994;73.352;2022-08-01T00:14:02;11.00;;;9.93;;
61743;SDS011;48718;54.994;73.352;2022-08-01T00:16:29;11.10;;;10.02;;
61743;SDS011;48718;54.994;73.352;2022-08-01T00:19:06;11.57;;;10.63;;
61743;SDS011;48718;54.994;73.352;2022-08-01T00:21:43;11.43;;;10.52;;
61743;SDS011;48718;54.994;73.352;2022-08-01T00:24:09;11.60;;;10.60;;
61743;SDS011;48718;54.994;73.352;2022-08-01T00:26:36;11.05;;;10.10;;
61743;SDS011;48718;54.994;73.352;2022-08-01T00:29:02;11.73;;;10.60;;
61743;SDS011;48718;54.994;73.352;2022-08-01T00:31:29;11.90;;;10.75;;
61743;SDS011;48718;54.994;73.352;2022-08-01T00:33:57;11.38;;;10.32;;
61743;SDS011;48718;54.994;73.352;2022-08-01T00:36:23;11.60;;;10.60;;
61743;SDS011;48718;54.994;73.352;2022-08-01T00:38:56;10.95;;;10.07;;
61743;SDS011;48718;54.994;73.352;2022-08-01T00:41:23;11.57;;;10.43;;
61743;SDS011;48718;54.994;73.352;2022-08-01T00:43:49;11.05;;;10.13;;
61743;SDS011;48718;54.994;73.352;2022-08-01T00:46:16;12.18;;;11.18;;
61743;SDS011;48718;54.994;73.352;2022-08-01T00:48:42;11.98;;;10.85;;
61743;SDS011;48718;54.994;73.352;2022-08-01T00:51:09;11.30;;;10.30;;
61743;SDS011;48718;54.994;73.352;2022-08-01T00:53:36;11.57;;;10.50;;
61743;SDS011;48718;54.994;73.352;2022-08-01T00:56:03;12.13;;;10.93;;
61743;SDS011;48718;54.994;73.352;2022-08-01T00:58:30;13.10;;;11.85;;
61743;SDS011;48718;54.994;73.352;2022-08-01T01:01:00;13.25;;;12.13;;
61743;SDS011;48718;54.994;73.352;2022-08-01T01:03:27;11.63;;;10.70;;
61743;SDS011;48718;54.994;73.352;2022-08-01T01:06:02;12.10;;;11.10;;
61743;SDS011;48718;54.994;73.352;2022-08-01T01:14:41;12.70;;;11.60;;
61743;SDS011;48718;54.994;73.352;2022-08-01T01:17:16;12.55;;;11.38;;
61743;SDS011;48718;54.994;73.352;2022-08-01T01:19:48;11.98;;;10.88;;
61743;SDS011;48718;54.994;73.352;2022-08-01T01:28:17;13.45;;;12.18;;
61743;SDS011;48718;54.994;73.352;2022-08-01T01:30:54;12.20;;;11.10;;
61743;SDS011;48718;54.994;73.352;2022-08-01T01:33:28;14.55;;;13.05;;
61743;SDS011;48718;54.994;73.352;2022-08-01T01:36:02;15.02;;;13.25;;
61743;SDS011;48718;54.994;73.352;2022-08-01T01:38:32;16.08;;;12.25;;
61743;SDS011;48718;54.994;73.352;2022-08-01T01:41:02;13.48;;;12.05;;
61743;SDS011;48718;54.994;73.352;2022-08-01T01:43:31;15.35;;;12.65;;
61743;SDS011;48718;54.994;73.352;2022-08-01T01:45:58;14.48;;;12.80;;
61743;SDS011;48718;54.994;73.352;2022-08-01T01:48:26;15.48;;;12.45;;
61743;SDS011;48718;54.994;73.352;2022-08-01T01:50:55;13.02;;;11.40;;
61743;SDS011;48718;54.994;73.352;2022-08-01T01:53:23;13.80;;;12.38;;
61743;SDS011;48718;54.994;73.352;2022-08-01T01:55:53;13.63;;;12.27;;
61743;SDS011;48718;54.994;73.352;2022-08-01T01:58:22;13.32;;;11.93;;
61743;SDS011;48718;54.994;73.352;2022-08-01T02:00:50;12.82;;;11.55;;
61743;SDS011;48718;54.994;73.352;2022-08-01T02:03:23;13.40;;;12.10;;
61743;SDS011;48718;54.994;73.352;2022-08-01T02:05:52;13.10;;;11.93;;
61743;SDS011;48718;54.994;73.352;2022-08-01T02:08:20;13.10;;;11.73;;
61743;SDS011;48718;54.994;73.352;2022-08-01T02:10:49;13.13;;;11.93;;
61743;SDS011;48718;54.994;73.352;2022-08-01T02:13:36;13.70;;;12.55;;
61743;SDS011;48718;54.994;73.352;2022-08-01T02:16:09;13.27;;;12.10;;
61743;SDS011;48718;54.994;73.352;2022-08-01T02:18:40;13.40;;;12.07;;
61743;SDS011;48718;54.994;73.352;2022-08-01T02:21:08;13.35;;;12.15;;
61743;SDS011;48718;54.994;73.352;2022-08-01T02:23:38;12.68;;;11.38;;
61743;SDS011;48718;54.994;73.352;2022-08-01T02:26:10;14.20;;;12.85;;
61743;SDS011;48718;54.994;73.352;2022-08-01T02:28:49;13.50;;;12.20;;
61743;SDS011;48718;54.994;73.352;2022-08-01T02:31:22;12.70;;;11.57;;
61743;SDS011;48718;54.994;73.352;2022-08-01T02:33:59;12.65;;;11.52;;
61743;SDS011;48718;54.994;73.352;2022-08-01T02:36:28;13.30;;;12.00;;
61743;SDS011;48718;54.994;73.352;2022-08-01T02:38:56;13.32;;;12.15;;
61743;SDS011;48718;54.994;73.352;2022-08-01T02:41:24;12.93;;;11.65;;
61743;SDS011;48718;54.994;73.352;2022-08-01T02:43:53;14.15;;;12.85;;
61743;SDS011;48718;54.994;73.352;2022-08-01T02:46:29;14.70;;;13.18;;
61743;SDS011;48718;54.994;73.352;2022-08-01T02:49:14;13.68;;;12.32;;
61743;SDS011;48718;54.994;73.352;2022-08-01T02:51:45;16.88;;;13.10;;
61743;SDS011;48718;54.994;73.352;2022-08-01T02:54:13;14.45;;;13.15;;
61743;SDS011;48718;54.994;73.352;2022-08-01T02:56:43;14.20;;;13.00;;
61743;SDS011;48718;54.994;73.352;2022-08-01T02:59:12;14.93;;;13.43;;
61743;SDS011;48718;54.994;73.352;2022-08-01T03:01:41;14.43;;;13.07;;
61743;SDS011;48718;54.994;73.352;2022-08-01T03:04:11;14.65;;;12.98;;
61743;SDS011;48718;54.994;73.352;2022-08-01T03:06:38;14.95;;;12.88;;
61743;SDS011;48718;54.994;73.352;2022-08-01T03:09:06;15.13;;;13.60;;
61743;SDS011;48718;54.994;73.352;2022-08-01T03:11:34;14.80;;;13.48;;
61743;SDS011;48718;54.994;73.352;2022-08-01T03:14:05;13.93;;;12.82;;
61743;SDS011;48718;54.994;73.352;2022-08-01T03:16:36;14.10;;;12.55;;
61743;SDS011;48718;54.994;73.352;2022-08-01T03:19:06;14.65;;;13.35;;
61743;SDS011;48718;54.994;73.352;2022-08-01T03:21:34;14.27;;;12.85;;
61743;SDS011;48718;54.994;73.352;2022-08-01T03:24:03;14.50;;;13.20;;
61743;SDS011;48718;54.994;73.352;2022-08-01T03:26:32;14.88;;;13.57;;
61743;SDS011;48718;54.994;73.352;2022-08-01T03:29:04;15.43;;;13.85;;
61743;SDS011;48718;54.994;73.352;2022-08-01T03:31:35;15.90;;;14.40;;
61743;SDS011;48718;54.994;73.352;2022-08-01T03:34:04;14.55;;;13.25;;
61743;SDS011;48718;54.994;73.352;2022-08-01T03:36:32;16.13;;;14.52;;
61743;SDS011;48718;54.994;73.352;2022-08-01T03:39:12;15.48;;;13.90;;
61743;SDS011;48718;54.994;73.352;2022-08-01T03:41:41;16.05;;;14.40;;
61743;SDS011;48718;54.994;73.352;2022-08-01T03:44:15;15.35;;;13.95;;
61743;SDS011;48718;54.994;73.352;2022-08-01T03:46:47;14.48;;;13.27;;
61743;SDS011;48718;54.994;73.352;2022-08-01T03:49:20;15.82;;;14.45;;
61743;SDS011;48718;54.994;73.352;2022-08-01T03:51:49;15.82;;;14.35;;
61743;SDS011;48718;54.994;73.352;2022-08-01T03:54:20;15.98;;;14.45;;
61743;SDS011;48718;54.994;73.352;2022-08-01T03:56:50;15.48;;;13.98;;
61743;SDS011;48718;54.994;73.352;2022-08-01T03:59:18;15.18;;;13.68;;
61743;SDS011;48718;54.994;73.352;2022-08-01T04:01:46;16.48;;;14.85;;
61743;SDS011;48718;54.994;73.352;2022-08-01T04:04:19;14.98;;;13.70;;
61743;SDS011;48718;54.994;73.352;2022-08-01T04:06:46;16.23;;;14.77;;
61743;SDS011;48718;54.994;73.352;2022-08-01T04:09:16;15.50;;;14.05;;
61743;SDS011;48718;54.994;73.352;2022-08-01T04:11:42;15.80;;;14.23;;
61743;SDS011;48718;54.994;73.352;2022-08-01T04:14:09;17.77;;;15.85;;
61743;SDS011;48718;54.994;73.352;2022-08-01T04:16:35;17.48;;;15.88;;
61743;SDS011;48718;54.994;73.352;2022-08-01T04:19:02;17.02;;;15.43;;
61743;SDS011;48718;54.994;73.352;2022-08-01T04:21:31;17.42;;;15.73;;
61743;SDS011;48718;54.994;73.352;2022-08-01T04:23:59;16.35;;;14.90;;
61743;SDS011;48718;54.994;73.352;2022-08-01T04:26:31;17.77;;;16.25;;
61743;SDS011;48718;54.994;73.352;2022-08-01T04:29:00;18.85;;;16.85;;
61743;SDS011;48718;54.994;73.352;2022-08-01T04:31:30;17.75;;;16.15;;
61743;SDS011;48718;54.994;73.352;2022-08-01T04:33:58;18.38;;;16.55;;
61743;SDS011;48718;54.994;73.352;2022-08-01T04:36:27;16.50;;;15.10;;
61743;SDS011;48718;54.994;73.352;2022-08-01T04:38:57;16.75;;;15.30;;
61743;SDS011;48718;54.994;73.352;2022-08-01T04:41:26;17.00;;;15.40;;
61743;SDS011;48718;54.994;73.352;2022-08-01T04:43:54;18.60;;;16.98;;
61743;SDS011;48718;54.994;73.352;2022-08-01T04:46:20;18.98;;;17.23;;
61743;SDS011;48718;54.994;73.352;2022-08-01T04:48:48;19.58;;;17.50;;
61743;SDS011;48718;54.994;73.352;2022-08-01T04:51:16;19.40;;;17.70;;
61743;SDS011;48718;54.994;73.352;2022-08-01T04:53:43;19.25;;;17.63;;
61743;SDS011;48718;54.994;73.352;2022-08-01T04:56:12;18.30;;;16.60;;
61743;SDS011;48718;54.994;73.352;2022-08-01T04:58:42;17.75;;;16.05;;
61743;SDS011;48718;54.994;73.352;2022-08-01T05:01:09;19.35;;;17.40;;
61743;SDS011;48718;54.994;73.352;2022-08-01T05:03:36;17.25;;;15.70;;
61743;SDS011;48718;54.994;73.352;2022-08-01T05:06:03;18.13;;;16.52;;
61743;SDS011;48718;54.994;73.352;2022-08-01T05:08:30;18.40;;;16.80;;
61743;SDS011;48718;54.994;73.352;2022-08-01T05:10:56;18.73;;;16.98;;
61743;SDS011;48718;54.994;73.352;2022-08-01T05:13:23;20.92;;;18.98;;
61743;SDS011;48718;54.994;73.352;2022-08-01T05:15:49;18.52;;;16.65;;
61743;SDS011;48718;54.994;73.352;2022-08-01T05:18:16;20.25;;;18.30;;
61743;SDS011;48718;54.994;73.352;2022-08-01T05:20:42;20.00;;;18.27;;
61743;SDS011;48718;54.994;73.352;2022-08-01T05:23:09;19.48;;;17.67;;
61743;SDS011;48718;54.994;73.352;2022-08-01T05:25:35;19.15;;;17.45;;
61743;SDS011;48718;54.994;73.352;2022-08-01T05:28:04;18.45;;;16.92;;
61743;SDS011;48718;54.994;73.352;2022-08-01T05:30:31;20.38;;;18.52;;
61743;SDS011;48718;54.994;73.352;2022-08-01T05:33:02;19.75;;;17.98;;
61743;SDS011;48718;54.994;73.352;2022-08-01T05:35:28;19.48;;;17.45;;
61743;SDS011;48718;54.994;73.352;2022-08-01T05:37:55;19.27;;;17.50;;
61743;SDS011;48718;54.994;73.352;2022-08-01T05:40:28;18.83;;;17.10;;
61743;SDS011;48718;54.994;73.352;2022-08-01T05:42:54;18.45;;;16.75;;
61743;SDS011;48718;54.994;73.352;2022-08-01T05:45:21;17.73;;;16.27;;
61743;SDS011;48718;54.994;73.352;2022-08-01T05:47:47;17.50;;;15.80;;
61743;SDS011;48718;54.994;73.352;2022-08-01T05:50:14;22.70;;;17.70;;
61743;SDS011;48718;54.994;73.352;2022-08-01T05:52:41;19.02;;;17.25;;
61743;SDS011;48718;54.994;73.352;2022-08-01T05:55:07;18.38;;;16.67;;
61743;SDS011;48718;54.994;73.352;2022-08-01T05:57:40;17.58;;;15.75;;
61743;SDS011;48718;54.994;73.352;2022-08-01T06:00:16;19.38;;;17.67;;
61743;SDS011;48718;54.994;73.352;2022-08-01T06:02:43;18.15;;;16.45;;
61743;SDS011;48718;54.994;73.352;2022-08-01T06:05:15;17.10;;;15.50;;
61743;SDS011;48718;54.994;73.352;2022-08-01T06:07:42;16.85;;;15.25;;
61743;SDS011;48718;54.994;73.352;2022-08-01T06:10:09;17.83;;;16.15;;
61743;SDS011;48718;54.994;73.352;2022-08-01T06:12:41;17.52;;;15.75;;
61743;SDS011;48718;54.994;73.352;2022-08-01T06:15:08;17.98;;;16.20;;
61743;SDS011;48718;54.994;73.352;2022-08-01T06:17:35;16.52;;;15.02;;
61743;SDS011;48718;54.994;73.352;2022-08-01T06:20:07;17.83;;;14.30;;
61743;SDS011;48718;54.994;73.352;2022-08-01T06:22:39;15.90;;;14.50;;
61743;SDS011;48718;54.994;73.352;2022-08-01T06:25:15;17.65;;;15.85;;
61743;SDS011;48718;54.994;73.352;2022-08-01T06:27:42;16.55;;;15.02;;
61743;SDS011;48718;54.994;73.352;2022-08-01T06:30:09;16.90;;;15.10;;
61743;SDS011;48718;54.994;73.352;2022-08-01T06:32:36;16.40;;;14.75;;
61743;SDS011;48718;54.994;73.352;2022-08-01T06:35:07;16.17;;;14.70;;
61743;SDS011;48718;54.994;73.352;2022-08-01T06:37:34;17.60;;;15.90;;
61743;SDS011;48718;54.994;73.352;2022-08-01T06:40:07;18.20;;;16.50;;
61743;SDS011;48718;54.994;73.352;2022-08-01T06:42:40;18.45;;;16.48;;
61743;SDS011;48718;54.994;73.352;2022-08-01T06:45:08;17.77;;;16.08;;
61743;SDS011;48718;54.994;73.352;2022-08-01T06:47:36;18.52;;;16.80;;
61743;SDS011;48718;54.994;73.352;2022-08-01T06:50:04;18.80;;;15.52;;
61743;SDS011;48718;54.994;73.352;2022-08-01T06:52:41;17.52;;;15.73;;
61743;SDS011;48718;54.994;73.352;2022-08-01T06:55:12;16.58;;;14.98;;
61743;SDS011;48718;54.994;73.352;2022-08-01T06:57:47;18.15;;;16.50;;
61743;SDS011;48718;54.994;73.352;2022-08-01T07:00:19;18.05;;;15.98;;
61743;SDS011;48718;54.994;73.352;2022-08-01T07:02:49;17.63;;;15.95;;
61743;SDS011;48718;54.994;73.352;2022-08-01T07:05:16;17.90;;;16.13;;
61743;SDS011;48718;54.994;73.352;2022-08-01T07:07:53;17.40;;;15.55;;
61743;SDS011;48718;54.994;73.352;2022-08-01T07:10:20;16.20;;;14.70;;
61743;SDS011;48718;54.994;73.352;2022-08-01T07:12:46;16.45;;;15.05;;
61743;SDS011;48718;54.994;73.352;2022-08-01T07:15:23;15.73;;;14.20;;
61743;SDS011;48718;54.994;73.352;2022-08-01T07:17:52;16.05;;;14.52;;
61743;SDS011;48718;54.994;73.352;2022-08-01T07:20:19;15.95;;;14.45;;
61743;SDS011;48718;54.994;73.352;2022-08-01T07:22:45;16.05;;;14.52;;
61743;SDS011;48718;54.994;73.352;2022-08-01T07:25:12;14.65;;;13.25;;
61743;SDS011;48718;54.994;73.352;2022-08-01T07:27:39;16.00;;;14.45;;
61743;SDS011;48718;54.994;73.352;2022-08-01T07:30:06;15.27;;;13.77;;
61743;SDS011;48718;54.994;73.352;2022-08-01T07:32:33;14.93;;;13.50;;
61743;SDS011;48718;54.994;73.352;2022-08-01T07:35:01;16.30;;;14.90;;
61743;SDS011;48718;54.994;73.352;2022-08-01T07:37:29;15.85;;;14.15;;
61743;SDS011;48718;54.994;73.352;2022-08-01T07:39:55;14.93;;;13.43;;
61743;SDS011;48718;54.994;73.352;2022-08-01T07:42:22;14.48;;;13.05;;
61743;SDS011;48718;54.994;73.352;2022-08-01T07:44:49;13.52;;;12.30;;
61743;SDS011;48718;54.994;73.352;2022-08-01T07:47:26;13.23;;;12.10;;
61743;SDS011;48718;54.994;73.352;2022-08-01T07:49:58;14.73;;;13.43;;
61743;SDS011;48718;54.994;73.352;2022-08-01T07:52:35;14.90;;;13.40;;
61743;SDS011;48718;54.994;73.352;2022-08-01T07:55:01;15.52;;;13.48;;
61743;SDS011;48718;54.994;73.352;2022-08-01T07:57:33;14.77;;;12.93;;
61743;SDS011;48718;54.994;73.352;2022-08-01T08:00:06;14.13;;;12.63;;
61743;SDS011;48718;54.994;73.352;2022-08-01T08:02:34;14.82;;;13.30;;
61743;SDS011;48718;54.994;73.352;2022-08-01T08:05:01;14.15;;;12.52;;
61743;SDS011;48718;54.994;73.352;2022-08-01T08:07:29;13.95;;;12.57;;
61743;SDS011;48718;54.994;73.352;2022-08-01T08:10:01;12.90;;;11.60;;
61743;SDS011;48718;54.994;73.352;2022-08-01T08:12:28;14.05;;;12.82;;
61743;SDS011;48718;54.994;73.352;2022-08-01T08:14:55;13.27;;;12.05;;
61743;SDS011;48718;54.994;73.352;2022-08-01T08:17:24;12.43;;;11.25;;
61743;SDS011;48718;54.994;73.352;2022-08-01T08:19:56;13.10;;;11.77;;
61743;SDS011;48718;54.994;73.352;2022-08-01T08:22:22;12.98;;;11.68;;
61743;SDS011;48718;54.994;73.352;2022-08-01T08:24:49;12.20;;;11.15;;
61743;SDS011;48718;54.994;73.352;2022-08-01T08:27:16;12.55;;;11.35;;
61743;SDS011;48718;54.994;73.352;2022-08-01T08:29:42;14.98;;;8.40;;
61743;SDS011;48718;54.994;73.352;2022-08-01T08:32:09;10.57;;;8.43;;
61743;SDS011;48718;54.994;73.352;2022-08-01T08:34:36;12.32;;;8.10;;
61743;SDS011;48718;54.994;73.352;2022-08-01T08:37:02;12.18;;;8.18;;
61743;SDS011;48718;54.994;73.352;2022-08-01T08:39:29;11.02;;;6.88;;
61743;SDS011;48718;54.994;73.352;2022-08-01T08:42:08;9.23;;;6.53;;
61743;SDS011;48718;54.994;73.352;2022-08-01T08:44:40;8.70;;;6.13;;
61743;SDS011;48718;54.994;73.352;2022-08-01T08:47:07;7.88;;;6.25;;
61743;SDS011;48718;54.994;73.352;2022-08-01T08:49:40;7.05;;;6.40;;
61743;SDS011;48718;54.994;73.352;2022-08-01T08:52:08;9.27;;;7.05;;
61743;SDS011;48718;54.994;73.352;2022-08-01T08:54:39;6.93;;;6.32;;
61743;SDS011;48718;54.994;73.352;2022-08-01T08:57:18;6.97;;;6.38;;
61743;SDS011;48718;54.994;73.352;2022-08-01T08:59:46;7.93;;;7.13;;
61743;SDS011;48718;54.994;73.352;2022-08-01T09:02:13;6.53;;;6.03;;
61743;SDS011;48718;54.994;73.352;2022-08-01T09:04:40;6.72;;;6.13;;
61743;SDS011;48718;54.994;73.352;2022-08-01T09:07:07;10.80;;;6.25;;
61743;SDS011;48718;54.994;73.352;2022-08-01T09:09:34;6.78;;;6.10;;
61743;SDS011;48718;54.994;73.352;2022-08-01T09:12:01;7.07;;;6.30;;
61743;SDS011;48718;54.994;73.352;2022-08-01T09:14:28;6.93;;;6.32;;
61743;SDS011;48718;54.994;73.352;2022-08-01T09:17:00;7.70;;;5.72;;
61743;SDS011;48718;54.994;73.352;2022-08-01T09:19:36;9.00;;;6.63;;
61743;SDS011;48718;54.994;73.352;2022-08-01T09:22:08;6.45;;;5.90;;
61743;SDS011;48718;54.994;73.352;2022-08-01T09:24:37;9.00;;;5.63;;
61743;SDS011;48718;54.994;73.352;2022-08-01T09:27:18;6.82;;;5.68;;
61743;SDS011;48718;54.994;73.352;2022-08-01T09:29:46;9.23;;;6.05;;
61743;SDS011;48718;54.994;73.352;2022-08-01T09:32:13;6.80;;;6.20;;
61743;SDS011;48718;54.994;73.352;2022-08-01T09:34:39;7.13;;;6.45;;
61743;SDS011;48718;54.994;73.352;2022-08-01T09:37:06;7.32;;;6.63;;
61743;SDS011;48718;54.994;73.352;2022-08-01T09:39:34;6.40;;;5.80;;
61743;SDS011;48718;54.994;73.352;2022-08-01T09:44:52;6.47;;;5.88;;
61743;SDS011;48718;54.994;73.352;2022-08-01T09:47:19;8.05;;;5.40;;
61743;SDS011;48718;54.994;73.352;2022-08-01T09:49:53;6.53;;;5.93;;
61743;SDS011;48718;54.994;73.352;2022-08-01T09:52:22;5.97;;;5.45;;
61743;SDS011;48718;54.994;73.352;2022-08-01T09:57:19;6.53;;;5.43;;
61743;SDS011;48718;54.994;73.352;2022-08-01T09:59:48;5.50;;;5.03;;
61743;SDS011;48718;54.994;73.352;2022-08-01T10:04:57;5.72;;;5.22;;
61743;SDS011;48718;54.994;73.352;2022-08-01T10:07:25;6.38;;;5.78;;
61743;SDS011;48718;54.994;73.352;2022-08-01T10:09:52;7.30;;;5.57;;
61743;SDS011;48718;54.994;73.352;2022-08-01T10:12:22;5.93;;;5.43;;
61743;SDS011;48718;54.994;73.352;2022-08-01T10:14:51;6.10;;;5.53;;
61743;SDS011;48718;54.994;73.352;2022-08-01T10:17:23;6.68;;;6.07;;
61743;SDS011;48718;54.994;73.352;2022-08-01T10:19:51;9.32;;;5.20;;
61743;SDS011;48718;54.994;73.352;2022-08-01T10:22:22;6.28;;;5.78;;
61743;SDS011;48718;54.994;73.352;2022-08-01T10:24:51;4.85;;;4.45;;
61743;SDS011;48718;54.994;73.352;2022-08-01T10:27:21;6.90;;;6.20;;
61743;SDS011;48718;54.994;73.352;2022-08-01T10:29:54;5.88;;;5.20;;
61743;SDS011;48718;54.994;73.352;2022-08-01T10:32:23;5.72;;;5.32;;
61743;SDS011;48718;54.994;73.352;2022-08-01T10:34:50;5.68;;;5.18;;
61743;SDS011;48718;54.994;73.352;2022-08-01T10:37:17;5.53;;;5.03;;
61743;SDS011;48718;54.994;73.352;2022-08-01T10:39:44;5.75;;;5.25;;
61743;SDS011;48718;54.994;73.352;2022-08-01T10:42:11;7.15;;;5.82;;
61743;SDS011;48718;54.994;73.352;2022-08-01T10:44:38;6.53;;;4.57;;
61743;SDS011;48718;54.994;73.352;2022-08-01T10:47:08;5.90;;;5.05;;
61743;SDS011;48718;54.994;73.352;2022-08-01T10:49:41;4.90;;;4.50;;
61743;SDS011;48718;54.994;73.352;2022-08-01T10:52:16;5.78;;;4.75;;
61743;SDS011;48718;54.994;73.352;2022-08-01T10:54:44;6.35;;;5.28;;
61743;SDS011;48718;54.994;73.352;2022-08-01T10:57:16;5.85;;;4.95;;
61743;SDS011;48718;54.994;73.352;2022-08-01T10:59:53;4.90;;;4.60;;
61743;SDS011;48718;54.994;73.352;2022-08-01T11:02:30;5.60;;;5.10;;
61743;SDS011;48718;54.994;73.352;2022-08-01T11:05:06;5.43;;;4.82;;
61743;SDS011;48718;54.994;73.352;2022-08-01T11:07:42;5.55;;;5.05;;
61743;SDS011;48718;54.994;73.352;2022-08-01T11:12:56;5.18;;;4.68;;
61743;SDS011;48718;54.994;73.352;2022-08-01T11:15:25;4.75;;;4.35;;
61743;SDS011;48718;54.994;73.352;2022-08-01T11:17:53;5.38;;;4.70;;
61743;SDS011;48718;54.994;73.352;2022-08-01T11:20:24;5.93;;;4.43;;
61743;SDS011;48718;54.994;73.352;2022-08-01T11:31:34;6.80;;;4.90;;
61743;SDS011;48718;54.994;73.352;2022-08-01T11:38:44;4.70;;;4.30;;
61743;SDS011;48718;54.994;73.352;2022-08-01T11:41:24;5.32;;;4.47;;
61743;SDS011;48718;54.994;73.352;2022-08-01T11:54:30;7.15;;;4.40;;
61743;SDS011;48718;54.994;73.352;2022-08-01T11:57:05;5.32;;;4.75;;
61743;SDS011;48718;54.994;73.352;2022-08-01T11:59:45;4.93;;;4.43;;
61743;SDS011;48718;54.994;73.352;2022-08-01T12:02:26;4.80;;;3.92;;
61743;SDS011;48718;54.994;73.352;2022-08-01T12:05:05;4.32;;;3.92;;
61743;SDS011;48718;54.994;73.352;2022-08-01T12:07:45;6.60;;;4.47;;
61743;SDS011;48718;54.994;73.352;2022-08-01T12:10:17;4.30;;;3.90;;
61743;SDS011;48718;54.994;73.352;2022-08-01T12:12:48;8.13;;;4.30;;
61743;SDS011;48718;54.994;73.352;2022-08-01T12:15:22;5.10;;;4.70;;
61743;SDS011;48718;54.994;73.352;2022-08-01T12:17:53;4.65;;;4.25;;
61743;SDS011;48718;54.994;73.352;2022-08-01T12:20:23;4.97;;;4.00;;
61743;SDS011;48718;54.994;73.352;2022-08-01T12:22:54;4.97;;;4.07;;
61743;SDS011;48718;54.994;73.352;2022-08-01T12:25:22;4.22;;;3.83;;
61743;SDS011;48718;54.994;73.352;2022-08-01T12:27:50;4.55;;;4.07;;
61743;SDS011;48718;54.994;73.352;2022-08-01T12:30:18;5.38;;;4.10;;
61743;SDS011;48718;54.994;73.352;2022-08-01T12:32:48;3.88;;;3.58;;
61743;SDS011;48718;54.994;73.352;2022-08-01T12:35:19;4.40;;;4.00;;
61743;SDS011;48718;54.994;73.352;2022-08-01T12:37:50;6.20;;;4.40;;
61743;SDS011;48718;54.994;73.352;2022-08-01T12:40:19;4.05;;;3.75;;
61743;SDS011;48718;54.994;73.352;2022-08-01T12:42:50;4.80;;;4.40;;
61743;SDS011;48718;54.994;73.352;2022-08-01T12:45:28;4.70;;;4.20;;
61743;SDS011;48718;54.994;73.352;2022-08-01T12:47:57;4.53;;;4.13;;
61743;SDS011;48718;54.994;73.352;2022-08-01T12:50:26;5.65;;;5.20;;
61743;SDS011;48718;54.994;73.352;2022-08-01T12:52:56;5.53;;;4.28;;
61743;SDS011;48718;54.994;73.352;2022-08-01T12:55:24;4.47;;;4.07;;
61743;SDS011;48718;54.994;73.352;2022-08-01T12:58:13;4.72;;;4.32;;
61743;SDS011;48718;54.994;73.352;2022-08-01T13:00:41;4.57;;;4.28;;
61743;SDS011;48718;54.994;73.352;2022-08-01T13:03:17;4.55;;;4.20;;
61743;SDS011;48718;54.994;73.352;2022-08-01T13:05:46;7.50;;;4.78;;
61743;SDS011;48718;54.994;73.352;2022-08-01T13:08:18;6.40;;;4.50;;
61743;SDS011;48718;54.994;73.352;2022-08-01T13:10:46;7.15;;;4.10;;
61743;SDS011;48718;54.994;73.352;2022-08-01T13:13:15;4.80;;;4.20;;
61743;SDS011;48718;54.994;73.352;2022-08-01T13:15:46;7.65;;;4.30;;
61743;SDS011;48718;54.994;73.352;2022-08-01T13:18:22;5.18;;;4.53;;
61743;SDS011;48718;54.994;73.352;2022-08-01T13:23:19;4.93;;;4.40;;
61743;SDS011;48718;54.994;73.352;2022-08-01T13:25:47;4.43;;;4.13;;
61743;SDS011;48718;54.994;73.352;2022-08-01T13:28:19;5.70;;;5.20;;
61743;SDS011;48718;54.994;73.352;2022-08-01T13:30:54;4.53;;;4.13;;
61743;SDS011;48718;54.994;73.352;2022-08-01T13:33:44;5.32;;;4.30;;
61743;SDS011;48718;54.994;73.352;2022-08-01T13:36:12;5.18;;;4.68;;
61743;SDS011;48718;54.994;73.352;2022-08-01T13:38:40;8.32;;;5.93;;
61743;SDS011;48718;54.994;73.352;2022-08-01T13:41:26;6.25;;;5.40;;
61743;SDS011;48718;54.994;73.352;2022-08-01T13:43:53;6.22;;;4.97;;
61743;SDS011;48718;54.994;73.352;2022-08-01T13:46:20;6.18;;;5.47;;
61743;SDS011;48718;54.994;73.352;2022-08-01T13:48:48;5.32;;;4.82;;
61743;SDS011;48718;54.994;73.352;2022-08-01T13:51:14;5.35;;;4.80;;
61743;SDS011;48718;54.994;73.352;2022-08-01T13:53:41;5.80;;;4.72;;
61743;SDS011;48718;54.994;73.352;2022-08-01T13:56:07;5.38;;;4.88;;
61743;SDS011;48718;54.994;73.352;2022-08-01T13:58:38;5.35;;;4.95;;
61743;SDS011;48718;54.994;73.352;2022-08-01T14:01:04;5.50;;;4.93;;
61743;SDS011;48718;54.994;73.352;2022-08-01T14:05:56;5.93;;;5.03;;
61743;SDS011;48718;54.994;73.352;2022-08-01T14:08:23;6.88;;;5.55;;
61743;SDS011;48718;54.994;73.352;2022-08-01T14:10:49;5.93;;;5.35;;
61743;SDS011;48718;54.994;73.352;2022-08-01T14:13:17;6.03;;;4.60;;
61743;SDS011;48718;54.994;73.352;2022-08-01T14:15:44;4.80;;;4.40;;
61743;SDS011;48718;54.994;73.352;2022-08-01T14:18:21;4.90;;;4.53;;
61743;SDS011;48718;54.994;73.352;2022-08-01T14:20:47;6.40;;;4.60;;
61743;SDS011;48718;54.994;73.352;2022-08-01T14:23:14;5.65;;;4.50;;
61743;SDS011;48718;54.994;73.352;2022-08-01T14:25:40;5.05;;;4.50;;
61743;SDS011;48718;54.994;73.352;2022-08-01T14:28:07;4.90;;;4.50;;
61743;SDS011;48718;54.994;73.352;2022-08-01T14:30:33;5.70;;;5.20;;
61743;SDS011;48718;54.994;73.352;2022-08-01T14:33:05;7.25;;;4.55;;
61743;SDS011;48718;54.994;73.352;2022-08-01T14:35:32;5.22;;;4.38;;
61743;SDS011;48718;54.994;73.352;2022-08-01T14:37:58;5.18;;;4.75;;
61743;SDS011;48718;54.994;73.352;2022-08-01T14:40:25;5.63;;;5.13;;
61743;SDS011;48718;54.994;73.352;2022-08-01T14:42:57;5.20;;;4.70;;
61743;SDS011;48718;54.994;73.352;2022-08-01T14:45:24;7.55;;;5.43;;
61743;SDS011;48718;54.994;73.352;2022-08-01T14:47:50;6.30;;;5.25;;
61743;SDS011;48718;54.994;73.352;2022-08-01T14:50:20;5.25;;;4.75;;
61743;SDS011;48718;54.994;73.352;2022-08-01T14:52:47;5.70;;;5.20;;
61743;SDS011;48718;54.994;73.352;2022-08-01T14:55:13;6.70;;;5.97;;
61743;SDS011;48718;54.994;73.352;2022-08-01T14:57:40;7.18;;;6.47;;
61743;SDS011;48718;54.994;73.352;2022-08-01T15:00:08;7.90;;;6.47;;
61743;SDS011;48718;54.994;73.352;2022-08-01T15:02:39;10.60;;;7.00;;
61743;SDS011;48718;54.994;73.352;2022-08-01T15:05:06;6.82;;;6.13;;
61743;SDS011;48718;54.994;73.352;2022-08-01T15:07:33;6.80;;;6.10;;
61743;SDS011;48718;54.994;73.352;2022-08-01T15:10:00;8.77;;;5.65;;
61743;SDS011;48718;54.994;73.352;2022-08-01T15:12:37;8.88;;;5.75;;
61743;SDS011;48718;54.994;73.352;2022-08-01T15:15:09;6.95;;;6.07;;
61743;SDS011;48718;54.994;73.352;2022-08-01T15:17:35;7.45;;;5.22;;
61743;SDS011;48718;54.994;73.352;2022-08-01T15:20:03;6.10;;;5.50;;
61743;SDS011;48718;54.994;73.352;2022-08-01T15:22:32;7.20;;;4.80;;
61743;SDS011;48718;54.994;73.352;2022-08-01T15:25:00;4.82;;;4.40;;